sensor_id;sensor_type;location;lat;lon;timestamp;P1;durP1;ratioP1;P2;durP2;ratioP2
72601;SDS011;60644;55.858;37.390;2023-11-18T00:00:22;11.18;;;3.78;;
72601;SDS011;60644;55.858;37.390;2023-11-18T00:02:48;10.73;;;4.45;;
72601;SDS011;60644;55.858;37.390;2023-11-18T00:05:14;18.90;;;5.73;;
72601;SDS011;60644;55.858;37.390;2023-11-18T00:07:40;14.00;;;5.20;;
72601;SDS011;60644;55.858;37.390;2023-11-18T00:10:05;12.60;;;4.10;;
72601;SDS011;60644;55.858;37.390;2023-11-18T00:12:32;14.00;;;4.60;;
72601;SDS011;60644;55.858;37.390;2023-11-18T00:15:00;13.95;;;4.32;;
72601;SDS011;60644;55.858;37.390;2023-11-18T00:17:31;15.20;;;5.10;;
72601;SDS011;60644;55.858;37.390;2023-11-18T00:19:57;17.00;;;4.55;;
72601;SDS011;60644;55.858;37.390;2023-11-18T00:22:23;12.23;;;4.27;;
72601;SDS011;60644;55.858;37.390;2023-11-18T00:24:49;12.43;;;3.92;;
72601;SDS011;60644;55.858;37.390;2023-11-18T00:27:15;11.10;;;3.90;;
72601;SDS011;60644;55.858;37.390;2023-11-18T00:29:41;11.63;;;3.67;;
72601;SDS011;60644;55.858;37.390;2023-11-18T00:32:07;11.15;;;3.63;;
72601;SDS011;60644;55.858;37.390;2023-11-18T00:34:33;10.80;;;2.88;;
72601;SDS011;60644;55.858;37.390;2023-11-18T00:36:58;14.65;;;3.67;;
72601;SDS011;60644;55.858;37.390;2023-11-18T00:39:24;14.90;;;3.93;;
72601;SDS011;60644;55.858;37.390;2023-11-18T00:41:50;13.40;;;3.92;;
72601;SDS011;60644;55.858;37.390;2023-11-18T00:44:15;14.27;;;4.03;;
72601;SDS011;60644;55.858;37.390;2023-11-18T00:46:41;19.63;;;4.35;;
72601;SDS011;60644;55.858;37.390;2023-11-18T00:49:07;16.57;;;4.80;;
72601;SDS011;60644;55.858;37.390;2023-11-18T00:51:33;13.00;;;3.75;;
72601;SDS011;60644;55.858;37.390;2023-11-18T00:54:00;14.05;;;4.28;;
72601;SDS011;60644;55.858;37.390;2023-11-18T00:56:31;12.23;;;3.63;;
72601;SDS011;60644;55.858;37.390;2023-11-18T00:58:57;14.53;;;4.10;;
72601;SDS011;60644;55.858;37.390;2023-11-18T01:01:23;16.75;;;4.00;;
72601;SDS011;60644;55.858;37.390;2023-11-18T01:03:48;12.52;;;3.42;;
72601;SDS011;60644;55.858;37.390;2023-11-18T01:06:14;13.40;;;4.30;;
72601;SDS011;60644;55.858;37.390;2023-11-18T01:08:43;15.45;;;4.20;;
72601;SDS011;60644;55.858;37.390;2023-11-18T01:11:09;18.90;;;4.60;;
72601;SDS011;60644;55.858;37.390;2023-11-18T01:13:35;11.73;;;3.63;;
72601;SDS011;60644;55.858;37.390;2023-11-18T01:16:01;15.27;;;3.80;;
72601;SDS011;60644;55.858;37.390;2023-11-18T01:18:27;13.88;;;4.65;;
72601;SDS011;60644;55.858;37.390;2023-11-18T01:20:53;15.07;;;3.93;;
72601;SDS011;60644;55.858;37.390;2023-11-18T01:23:19;17.10;;;4.68;;
72601;SDS011;60644;55.858;37.390;2023-11-18T01:25:45;11.82;;;3.58;;
72601;SDS011;60644;55.858;37.390;2023-11-18T01:28:11;15.97;;;4.60;;
72601;SDS011;60644;55.858;37.390;2023-11-18T01:30:37;12.82;;;3.85;;
72601;SDS011;60644;55.858;37.390;2023-11-18T01:33:03;14.53;;;3.90;;
72601;SDS011;60644;55.858;37.390;2023-11-18T01:35:29;15.60;;;4.07;;
72601;SDS011;60644;55.858;37.390;2023-11-18T01:37:56;10.35;;;3.35;;
72601;SDS011;60644;55.858;37.390;2023-11-18T01:40:22;10.32;;;2.75;;
72601;SDS011;60644;55.858;37.390;2023-11-18T01:42:49;12.40;;;3.50;;
72601;SDS011;60644;55.858;37.390;2023-11-18T01:45:15;11.35;;;3.38;;
72601;SDS011;60644;55.858;37.390;2023-11-18T01:47:42;9.75;;;3.15;;
72601;SDS011;60644;55.858;37.390;2023-11-18T01:50:09;10.95;;;3.03;;
72601;SDS011;60644;55.858;37.390;2023-11-18T01:52:36;12.93;;;3.57;;
72601;SDS011;60644;55.858;37.390;2023-11-18T01:55:03;14.07;;;3.90;;
72601;SDS011;60644;55.858;37.390;2023-11-18T01:57:32;11.75;;;3.22;;
72601;SDS011;60644;55.858;37.390;2023-11-18T01:59:59;11.95;;;3.30;;
72601;SDS011;60644;55.858;37.390;2023-11-18T02:02:25;11.50;;;3.97;;
72601;SDS011;60644;55.858;37.390;2023-11-18T02:04:51;8.80;;;3.13;;
72601;SDS011;60644;55.858;37.390;2023-11-18T02:07:16;11.13;;;3.53;;
72601;SDS011;60644;55.858;37.390;2023-11-18T02:09:43;11.65;;;3.67;;
72601;SDS011;60644;55.858;37.390;2023-11-18T02:12:22;11.43;;;3.10;;
72601;SDS011;60644;55.858;37.390;2023-11-18T02:14:49;7.95;;;2.45;;
72601;SDS011;60644;55.858;37.390;2023-11-18T02:17:17;14.40;;;3.03;;
72601;SDS011;60644;55.858;37.390;2023-11-18T02:19:43;8.63;;;2.67;;
72601;SDS011;60644;55.858;37.390;2023-11-18T02:22:10;12.18;;;3.42;;
72601;SDS011;60644;55.858;37.390;2023-11-18T02:24:37;10.75;;;3.22;;
72601;SDS011;60644;55.858;37.390;2023-11-18T02:27:03;14.05;;;2.90;;
72601;SDS011;60644;55.858;37.390;2023-11-18T02:29:41;12.07;;;2.97;;
72601;SDS011;60644;55.858;37.390;2023-11-18T02:32:22;10.90;;;3.08;;
72601;SDS011;60644;55.858;37.390;2023-11-18T02:34:51;9.60;;;3.13;;
72601;SDS011;60644;55.858;37.390;2023-11-18T02:37:19;9.90;;;2.50;;
72601;SDS011;60644;55.858;37.390;2023-11-18T02:39:47;9.85;;;2.50;;
72601;SDS011;60644;55.858;37.390;2023-11-18T02:42:17;11.83;;;3.27;;
72601;SDS011;60644;55.858;37.390;2023-11-18T02:44:42;13.25;;;3.20;;
72601;SDS011;60644;55.858;37.390;2023-11-18T02:47:09;10.10;;;2.67;;
72601;SDS011;60644;55.858;37.390;2023-11-18T02:49:35;8.33;;;2.77;;
72601;SDS011;60644;55.858;37.390;2023-11-18T02:52:01;11.38;;;3.13;;
72601;SDS011;60644;55.858;37.390;2023-11-18T02:54:27;9.50;;;3.17;;
72601;SDS011;60644;55.858;37.390;2023-11-18T02:56:53;9.02;;;3.20;;
72601;SDS011;60644;55.858;37.390;2023-11-18T02:59:21;11.45;;;2.83;;
72601;SDS011;60644;55.858;37.390;2023-11-18T03:01:46;11.70;;;3.25;;
72601;SDS011;60644;55.858;37.390;2023-11-18T03:04:12;10.13;;;2.60;;
72601;SDS011;60644;55.858;37.390;2023-11-18T03:06:39;10.15;;;3.13;;
72601;SDS011;60644;55.858;37.390;2023-11-18T03:09:06;12.13;;;3.67;;
72601;SDS011;60644;55.858;37.390;2023-11-18T03:11:33;13.43;;;3.25;;
72601;SDS011;60644;55.858;37.390;2023-11-18T03:13:59;8.23;;;2.40;;
72601;SDS011;60644;55.858;37.390;2023-11-18T03:16:24;10.23;;;2.60;;
72601;SDS011;60644;55.858;37.390;2023-11-18T03:18:50;8.90;;;2.87;;
72601;SDS011;60644;55.858;37.390;2023-11-18T03:21:16;12.20;;;3.05;;
72601;SDS011;60644;55.858;37.390;2023-11-18T03:23:42;9.73;;;2.47;;
72601;SDS011;60644;55.858;37.390;2023-11-18T03:26:08;12.37;;;2.47;;
72601;SDS011;60644;55.858;37.390;2023-11-18T03:28:34;8.60;;;2.42;;
72601;SDS011;60644;55.858;37.390;2023-11-18T03:31:04;10.82;;;2.42;;
72601;SDS011;60644;55.858;37.390;2023-11-18T03:33:30;11.50;;;3.43;;
72601;SDS011;60644;55.858;37.390;2023-11-18T03:35:56;10.20;;;2.78;;
72601;SDS011;60644;55.858;37.390;2023-11-18T03:38:22;9.40;;;2.50;;
72601;SDS011;60644;55.858;37.390;2023-11-18T03:40:49;11.85;;;3.05;;
72601;SDS011;60644;55.858;37.390;2023-11-18T03:43:18;13.70;;;2.70;;
72601;SDS011;60644;55.858;37.390;2023-11-18T03:45:45;9.75;;;3.10;;
72601;SDS011;60644;55.858;37.390;2023-11-18T03:48:11;10.00;;;3.10;;
72601;SDS011;60644;55.858;37.390;2023-11-18T03:50:40;10.73;;;2.88;;
72601;SDS011;60644;55.858;37.390;2023-11-18T03:53:06;10.30;;;3.35;;
72601;SDS011;60644;55.858;37.390;2023-11-18T03:55:32;10.53;;;3.00;;
72601;SDS011;60644;55.858;37.390;2023-11-18T03:57:59;8.90;;;2.88;;
72601;SDS011;60644;55.858;37.390;2023-11-18T04:00:24;13.15;;;3.00;;
72601;SDS011;60644;55.858;37.390;2023-11-18T04:02:55;8.77;;;2.38;;
72601;SDS011;60644;55.858;37.390;2023-11-18T04:05:22;9.30;;;2.47;;
72601;SDS011;60644;55.858;37.390;2023-11-18T04:07:48;8.45;;;2.35;;
72601;SDS011;60644;55.858;37.390;2023-11-18T04:10:13;11.17;;;2.60;;
72601;SDS011;60644;55.858;37.390;2023-11-18T04:12:40;9.95;;;2.47;;
72601;SDS011;60644;55.858;37.390;2023-11-18T04:15:06;10.52;;;2.83;;
72601;SDS011;60644;55.858;37.390;2023-11-18T04:17:33;12.18;;;3.10;;
72601;SDS011;60644;55.858;37.390;2023-11-18T04:19:59;8.15;;;2.05;;
72601;SDS011;60644;55.858;37.390;2023-11-18T04:22:24;6.68;;;1.90;;
72601;SDS011;60644;55.858;37.390;2023-11-18T04:24:50;10.52;;;2.22;;
72601;SDS011;60644;55.858;37.390;2023-11-18T04:27:16;8.80;;;2.83;;
72601;SDS011;60644;55.858;37.390;2023-11-18T04:29:41;11.48;;;2.53;;
72601;SDS011;60644;55.858;37.390;2023-11-18T04:32:07;8.18;;;2.63;;
72601;SDS011;60644;55.858;37.390;2023-11-18T04:34:36;10.48;;;3.33;;
72601;SDS011;60644;55.858;37.390;2023-11-18T04:37:02;10.55;;;2.80;;
72601;SDS011;60644;55.858;37.390;2023-11-18T04:39:31;12.00;;;2.88;;
72601;SDS011;60644;55.858;37.390;2023-11-18T04:41:57;11.63;;;3.28;;
72601;SDS011;60644;55.858;37.390;2023-11-18T04:44:23;10.83;;;2.80;;
72601;SDS011;60644;55.858;37.390;2023-11-18T04:46:48;9.50;;;2.55;;
72601;SDS011;60644;55.858;37.390;2023-11-18T04:49:14;11.07;;;3.00;;
72601;SDS011;60644;55.858;37.390;2023-11-18T04:51:40;10.13;;;2.73;;
72601;SDS011;60644;55.858;37.390;2023-11-18T04:54:05;13.10;;;3.80;;
72601;SDS011;60644;55.858;37.390;2023-11-18T04:56:33;13.23;;;2.93;;
72601;SDS011;60644;55.858;37.390;2023-11-18T04:59:01;9.88;;;3.33;;
72601;SDS011;60644;55.858;37.390;2023-11-18T05:01:27;9.68;;;2.90;;
72601;SDS011;60644;55.858;37.390;2023-11-18T05:03:52;12.53;;;3.23;;
72601;SDS011;60644;55.858;37.390;2023-11-18T05:06:18;12.65;;;3.28;;
72601;SDS011;60644;55.858;37.390;2023-11-18T05:08:45;13.43;;;3.83;;
72601;SDS011;60644;55.858;37.390;2023-11-18T05:11:11;7.50;;;2.50;;
72601;SDS011;60644;55.858;37.390;2023-11-18T05:13:38;11.70;;;3.63;;
72601;SDS011;60644;55.858;37.390;2023-11-18T05:16:05;13.15;;;4.13;;
72601;SDS011;60644;55.858;37.390;2023-11-18T05:18:31;11.70;;;3.43;;
72601;SDS011;60644;55.858;37.390;2023-11-18T05:21:01;10.43;;;3.53;;
72601;SDS011;60644;55.858;37.390;2023-11-18T05:23:27;11.32;;;2.60;;
72601;SDS011;60644;55.858;37.390;2023-11-18T05:25:54;10.03;;;3.27;;
72601;SDS011;60644;55.858;37.390;2023-11-18T05:28:21;14.23;;;4.03;;
72601;SDS011;60644;55.858;37.390;2023-11-18T05:30:47;10.65;;;3.00;;
72601;SDS011;60644;55.858;37.390;2023-11-18T05:33:13;8.30;;;2.67;;
72601;SDS011;60644;55.858;37.390;2023-11-18T05:35:46;11.60;;;2.33;;
72601;SDS011;60644;55.858;37.390;2023-11-18T05:38:15;8.70;;;2.70;;
72601;SDS011;60644;55.858;37.390;2023-11-18T05:40:44;11.45;;;3.10;;
72601;SDS011;60644;55.858;37.390;2023-11-18T05:43:19;11.07;;;3.20;;
72601;SDS011;60644;55.858;37.390;2023-11-18T05:45:46;10.83;;;3.47;;
72601;SDS011;60644;55.858;37.390;2023-11-18T05:48:32;13.60;;;3.65;;
72601;SDS011;60644;55.858;37.390;2023-11-18T05:50:57;13.90;;;3.33;;
72601;SDS011;60644;55.858;37.390;2023-11-18T05:53:23;11.57;;;3.15;;
72601;SDS011;60644;55.858;37.390;2023-11-18T05:55:48;10.93;;;3.53;;
72601;SDS011;60644;55.858;37.390;2023-11-18T05:58:15;14.10;;;3.60;;
72601;SDS011;60644;55.858;37.390;2023-11-18T06:00:40;12.10;;;3.20;;
72601;SDS011;60644;55.858;37.390;2023-11-18T06:03:06;11.32;;;3.53;;
72601;SDS011;60644;55.858;37.390;2023-11-18T06:05:32;12.93;;;3.10;;
72601;SDS011;60644;55.858;37.390;2023-11-18T06:08:00;9.55;;;2.67;;
72601;SDS011;60644;55.858;37.390;2023-11-18T06:10:26;11.43;;;3.35;;
72601;SDS011;60644;55.858;37.390;2023-11-18T06:12:51;10.77;;;3.23;;
72601;SDS011;60644;55.858;37.390;2023-11-18T06:15:18;13.43;;;3.88;;
72601;SDS011;60644;55.858;37.390;2023-11-18T06:17:44;10.10;;;2.93;;
72601;SDS011;60644;55.858;37.390;2023-11-18T06:20:10;12.10;;;2.88;;
72601;SDS011;60644;55.858;37.390;2023-11-18T06:22:36;8.68;;;3.08;;
72601;SDS011;60644;55.858;37.390;2023-11-18T06:25:01;12.97;;;3.33;;
72601;SDS011;60644;55.858;37.390;2023-11-18T06:27:29;10.80;;;3.35;;
72601;SDS011;60644;55.858;37.390;2023-11-18T06:29:55;9.73;;;3.37;;
72601;SDS011;60644;55.858;37.390;2023-11-18T06:32:21;10.35;;;3.53;;
72601;SDS011;60644;55.858;37.390;2023-11-18T06:34:47;10.83;;;3.40;;
72601;SDS011;60644;55.858;37.390;2023-11-18T06:37:14;12.68;;;3.95;;
72601;SDS011;60644;55.858;37.390;2023-11-18T06:39:43;12.27;;;4.07;;
72601;SDS011;60644;55.858;37.390;2023-11-18T06:42:13;14.05;;;3.55;;
72601;SDS011;60644;55.858;37.390;2023-11-18T06:44:39;8.90;;;3.03;;
72601;SDS011;60644;55.858;37.390;2023-11-18T06:47:05;12.52;;;3.13;;
72601;SDS011;60644;55.858;37.390;2023-11-18T06:49:32;11.10;;;3.93;;
72601;SDS011;60644;55.858;37.390;2023-11-18T06:52:03;11.85;;;3.75;;
72601;SDS011;60644;55.858;37.390;2023-11-18T06:54:29;12.48;;;3.80;;
72601;SDS011;60644;55.858;37.390;2023-11-18T06:56:55;14.63;;;3.95;;
72601;SDS011;60644;55.858;37.390;2023-11-18T06:59:22;14.50;;;3.95;;
72601;SDS011;60644;55.858;37.390;2023-11-18T07:01:48;12.50;;;3.93;;
72601;SDS011;60644;55.858;37.390;2023-11-18T07:04:14;16.13;;;4.03;;
72601;SDS011;60644;55.858;37.390;2023-11-18T07:06:40;14.18;;;4.05;;
72601;SDS011;60644;55.858;37.390;2023-11-18T07:09:07;11.17;;;3.90;;
72601;SDS011;60644;55.858;37.390;2023-11-18T07:11:43;14.23;;;3.63;;
72601;SDS011;60644;55.858;37.390;2023-11-18T07:14:11;13.15;;;4.03;;
72601;SDS011;60644;55.858;37.390;2023-11-18T07:16:41;12.43;;;3.40;;
72601;SDS011;60644;55.858;37.390;2023-11-18T07:19:07;10.38;;;3.90;;
72601;SDS011;60644;55.858;37.390;2023-11-18T07:21:33;12.10;;;3.63;;
72601;SDS011;60644;55.858;37.390;2023-11-18T07:23:59;12.07;;;4.22;;
72601;SDS011;60644;55.858;37.390;2023-11-18T07:26:25;16.92;;;4.30;;
72601;SDS011;60644;55.858;37.390;2023-11-18T07:28:50;12.00;;;4.00;;
72601;SDS011;60644;55.858;37.390;2023-11-18T07:31:18;9.52;;;3.40;;
72601;SDS011;60644;55.858;37.390;2023-11-18T07:33:45;14.43;;;4.55;;
72601;SDS011;60644;55.858;37.390;2023-11-18T07:36:15;18.50;;;4.78;;
72601;SDS011;60644;55.858;37.390;2023-11-18T07:38:41;12.37;;;4.40;;
72601;SDS011;60644;55.858;37.390;2023-11-18T07:41:07;12.23;;;3.78;;
72601;SDS011;60644;55.858;37.390;2023-11-18T07:43:34;13.50;;;4.50;;
72601;SDS011;60644;55.858;37.390;2023-11-18T07:46:02;12.27;;;4.53;;
72601;SDS011;60644;55.858;37.390;2023-11-18T07:48:28;13.90;;;5.03;;
72601;SDS011;60644;55.858;37.390;2023-11-18T07:50:53;12.15;;;5.57;;
72601;SDS011;60644;55.858;37.390;2023-11-18T07:53:19;13.40;;;4.63;;
72601;SDS011;60644;55.858;37.390;2023-11-18T07:55:45;13.85;;;5.43;;
72601;SDS011;60644;55.858;37.390;2023-11-18T07:58:13;13.57;;;5.07;;
72601;SDS011;60644;55.858;37.390;2023-11-18T08:00:39;18.73;;;6.38;;
72601;SDS011;60644;55.858;37.390;2023-11-18T08:03:08;20.00;;;6.50;;
72601;SDS011;60644;55.858;37.390;2023-11-18T08:05:38;17.07;;;6.13;;
72601;SDS011;60644;55.858;37.390;2023-11-18T08:08:07;13.55;;;5.63;;
72601;SDS011;60644;55.858;37.390;2023-11-18T08:10:34;15.50;;;6.50;;
72601;SDS011;60644;55.858;37.390;2023-11-18T08:13:04;17.30;;;6.70;;
72601;SDS011;60644;55.858;37.390;2023-11-18T08:15:30;18.10;;;7.15;;
72601;SDS011;60644;55.858;37.390;2023-11-18T08:17:56;16.80;;;6.73;;
72601;SDS011;60644;55.858;37.390;2023-11-18T08:20:22;17.10;;;8.10;;
72601;SDS011;60644;55.858;37.390;2023-11-18T08:22:50;18.33;;;6.88;;
72601;SDS011;60644;55.858;37.390;2023-11-18T08:25:16;18.97;;;7.20;;
72601;SDS011;60644;55.858;37.390;2023-11-18T08:27:46;16.65;;;6.70;;
72601;SDS011;60644;55.858;37.390;2023-11-18T08:30:11;16.17;;;6.40;;
72601;SDS011;60644;55.858;37.390;2023-11-18T08:32:38;16.38;;;6.90;;
72601;SDS011;60644;55.858;37.390;2023-11-18T08:35:07;16.30;;;6.65;;
72601;SDS011;60644;55.858;37.390;2023-11-18T08:37:34;19.77;;;6.60;;
72601;SDS011;60644;55.858;37.390;2023-11-18T08:40:09;17.17;;;6.35;;
72601;SDS011;60644;55.858;37.390;2023-11-18T08:42:44;16.33;;;5.88;;
72601;SDS011;60644;55.858;37.390;2023-11-18T08:45:17;16.38;;;5.22;;
72601;SDS011;60644;55.858;37.390;2023-11-18T08:47:45;17.42;;;6.55;;
72601;SDS011;60644;55.858;37.390;2023-11-18T08:50:17;14.50;;;6.63;;
72601;SDS011;60644;55.858;37.390;2023-11-18T08:52:44;14.07;;;5.60;;
72601;SDS011;60644;55.858;37.390;2023-11-18T08:55:13;17.02;;;5.28;;
72601;SDS011;60644;55.858;37.390;2023-11-18T08:58:02;13.32;;;3.63;;
72601;SDS011;60644;55.858;37.390;2023-11-18T09:00:30;11.77;;;2.05;;
72601;SDS011;60644;55.858;37.390;2023-11-18T09:03:11;8.93;;;2.63;;
72601;SDS011;60644;55.858;37.390;2023-11-18T09:08:30;10.60;;;2.60;;
72601;SDS011;60644;55.858;37.390;2023-11-18T09:11:09;9.43;;;2.45;;
72601;SDS011;60644;55.858;37.390;2023-11-18T09:13:43;9.68;;;1.70;;
72601;SDS011;60644;55.858;37.390;2023-11-18T09:16:10;8.13;;;2.37;;
72601;SDS011;60644;55.858;37.390;2023-11-18T09:18:37;8.48;;;2.08;;
72601;SDS011;60644;55.858;37.390;2023-11-18T09:21:05;12.15;;;1.98;;
72601;SDS011;60644;55.858;37.390;2023-11-18T09:23:33;8.25;;;1.63;;
72601;SDS011;60644;55.858;37.390;2023-11-18T09:26:01;8.27;;;1.90;;
72601;SDS011;60644;55.858;37.390;2023-11-18T09:28:28;9.37;;;2.47;;
72601;SDS011;60644;55.858;37.390;2023-11-18T09:30:56;9.35;;;1.67;;
72601;SDS011;60644;55.858;37.390;2023-11-18T09:33:29;5.28;;;1.50;;
72601;SDS011;60644;55.858;37.390;2023-11-18T09:38:28;10.00;;;3.20;;
72601;SDS011;60644;55.858;37.390;2023-11-18T09:40:54;8.97;;;3.27;;
72601;SDS011;60644;55.858;37.390;2023-11-18T09:43:20;13.05;;;2.92;;
72601;SDS011;60644;55.858;37.390;2023-11-18T09:45:56;9.07;;;2.67;;
72601;SDS011;60644;55.858;37.390;2023-11-18T09:48:27;11.73;;;2.50;;
72601;SDS011;60644;55.858;37.390;2023-11-18T09:50:53;12.33;;;3.00;;
72601;SDS011;60644;55.858;37.390;2023-11-18T09:53:19;12.75;;;3.10;;
72601;SDS011;60644;55.858;37.390;2023-11-18T09:55:49;14.03;;;3.83;;
72601;SDS011;60644;55.858;37.390;2023-11-18T09:58:19;11.18;;;3.70;;
72601;SDS011;60644;55.858;37.390;2023-11-18T10:00:49;14.98;;;3.00;;
72601;SDS011;60644;55.858;37.390;2023-11-18T10:03:16;9.60;;;2.95;;
72601;SDS011;60644;55.858;37.390;2023-11-18T10:05:42;11.23;;;3.97;;
72601;SDS011;60644;55.858;37.390;2023-11-18T10:08:08;10.05;;;3.72;;
72601;SDS011;60644;55.858;37.390;2023-11-18T10:10:35;13.00;;;3.70;;
72601;SDS011;60644;55.858;37.390;2023-11-18T10:13:04;13.63;;;4.03;;
72601;SDS011;60644;55.858;37.390;2023-11-18T10:15:47;10.90;;;3.25;;
72601;SDS011;60644;55.858;37.390;2023-11-18T10:18:20;12.00;;;3.95;;
72601;SDS011;60644;55.858;37.390;2023-11-18T10:20:49;13.57;;;4.13;;
72601;SDS011;60644;55.858;37.390;2023-11-18T10:23:20;10.52;;;3.45;;
72601;SDS011;60644;55.858;37.390;2023-11-18T10:25:47;17.70;;;4.60;;
72601;SDS011;60644;55.858;37.390;2023-11-18T10:28:23;12.13;;;3.55;;
72601;SDS011;60644;55.858;37.390;2023-11-18T10:30:50;11.95;;;3.42;;
72601;SDS011;60644;55.858;37.390;2023-11-18T10:33:19;11.23;;;2.55;;
72601;SDS011;60644;55.858;37.390;2023-11-18T10:35:51;15.50;;;3.85;;
72601;SDS011;60644;55.858;37.390;2023-11-18T10:38:17;11.53;;;3.83;;
72601;SDS011;60644;55.858;37.390;2023-11-18T10:40:43;15.18;;;3.97;;
72601;SDS011;60644;55.858;37.390;2023-11-18T10:43:09;13.20;;;3.53;;
72601;SDS011;60644;55.858;37.390;2023-11-18T10:45:36;12.48;;;4.32;;
72601;SDS011;60644;55.858;37.390;2023-11-18T10:48:05;12.90;;;4.22;;
72601;SDS011;60644;55.858;37.390;2023-11-18T10:50:31;13.87;;;3.63;;
72601;SDS011;60644;55.858;37.390;2023-11-18T10:52:58;12.40;;;3.90;;
72601;SDS011;60644;55.858;37.390;2023-11-18T10:55:35;14.95;;;4.43;;
72601;SDS011;60644;55.858;37.390;2023-11-18T10:58:02;12.25;;;4.25;;
72601;SDS011;60644;55.858;37.390;2023-11-18T11:00:45;11.77;;;3.50;;
72601;SDS011;60644;55.858;37.390;2023-11-18T11:03:12;12.33;;;4.43;;
72601;SDS011;60644;55.858;37.390;2023-11-18T11:05:39;12.75;;;4.55;;
72601;SDS011;60644;55.858;37.390;2023-11-18T11:08:08;13.68;;;4.13;;
72601;SDS011;60644;55.858;37.390;2023-11-18T11:10:34;10.60;;;3.97;;
72601;SDS011;60644;55.858;37.390;2023-11-18T11:13:01;12.00;;;4.22;;
72601;SDS011;60644;55.858;37.390;2023-11-18T11:15:31;12.20;;;3.93;;
72601;SDS011;60644;55.858;37.390;2023-11-18T11:18:07;15.60;;;4.45;;
72601;SDS011;60644;55.858;37.390;2023-11-18T11:20:53;10.88;;;4.20;;
72601;SDS011;60644;55.858;37.390;2023-11-18T11:23:21;15.02;;;4.72;;
72601;SDS011;60644;55.858;37.390;2023-11-18T11:26:06;12.57;;;4.28;;
72601;SDS011;60644;55.858;37.390;2023-11-18T11:28:42;10.17;;;3.60;;
72601;SDS011;60644;55.858;37.390;2023-11-18T11:31:16;13.88;;;3.88;;
72601;SDS011;60644;55.858;37.390;2023-11-18T11:34:02;10.95;;;3.63;;
72601;SDS011;60644;55.858;37.390;2023-11-18T11:36:35;14.20;;;4.30;;
72601;SDS011;60644;55.858;37.390;2023-11-18T11:39:04;14.35;;;4.45;;
72601;SDS011;60644;55.858;37.390;2023-11-18T11:41:35;12.40;;;3.90;;
72601;SDS011;60644;55.858;37.390;2023-11-18T11:44:02;12.75;;;4.00;;
72601;SDS011;60644;55.858;37.390;2023-11-18T11:46:31;9.27;;;3.42;;
72601;SDS011;60644;55.858;37.390;2023-11-18T11:49:02;8.02;;;3.00;;
72601;SDS011;60644;55.858;37.390;2023-11-18T11:51:44;12.43;;;4.72;;
72601;SDS011;60644;55.858;37.390;2023-11-18T11:54:21;11.67;;;4.10;;
72601;SDS011;60644;55.858;37.390;2023-11-18T11:56:48;15.77;;;4.00;;
72601;SDS011;60644;55.858;37.390;2023-11-18T12:02:20;15.15;;;4.05;;
72601;SDS011;60644;55.858;37.390;2023-11-18T12:04:50;12.50;;;4.32;;
72601;SDS011;60644;55.858;37.390;2023-11-18T12:07:20;14.47;;;4.10;;
72601;SDS011;60644;55.858;37.390;2023-11-18T12:09:49;13.57;;;4.13;;
72601;SDS011;60644;55.858;37.390;2023-11-18T12:12:20;16.88;;;4.63;;
72601;SDS011;60644;55.858;37.390;2023-11-18T12:17:22;13.30;;;5.43;;
72601;SDS011;60644;55.858;37.390;2023-11-18T12:19:49;10.33;;;3.90;;
72601;SDS011;60644;55.858;37.390;2023-11-18T12:22:19;10.00;;;4.00;;
72601;SDS011;60644;55.858;37.390;2023-11-18T12:33:14;16.93;;;5.37;;
72601;SDS011;60644;55.858;37.390;2023-11-18T12:40:55;15.23;;;4.78;;
72601;SDS011;60644;55.858;37.390;2023-11-18T12:48:45;13.57;;;4.78;;
72601;SDS011;60644;55.858;37.390;2023-11-18T12:51:13;15.02;;;5.78;;
72601;SDS011;60644;55.858;37.390;2023-11-18T12:53:48;19.80;;;8.10;;
72601;SDS011;60644;55.858;37.390;2023-11-18T12:56:21;17.45;;;7.43;;
72601;SDS011;60644;55.858;37.390;2023-11-18T12:58:50;12.60;;;4.90;;
72601;SDS011;60644;55.858;37.390;2023-11-18T13:01:16;15.05;;;6.15;;
72601;SDS011;60644;55.858;37.390;2023-11-18T13:03:44;22.33;;;7.97;;
72601;SDS011;60644;55.858;37.390;2023-11-18T13:06:14;22.47;;;6.50;;
72601;SDS011;60644;55.858;37.390;2023-11-18T13:08:40;22.15;;;10.30;;
72601;SDS011;60644;55.858;37.390;2023-11-18T13:11:06;18.70;;;8.32;;
72601;SDS011;60644;55.858;37.390;2023-11-18T13:13:44;15.20;;;5.20;;
72601;SDS011;60644;55.858;37.390;2023-11-18T13:16:12;14.60;;;5.20;;
72601;SDS011;60644;55.858;37.390;2023-11-18T13:18:43;16.97;;;5.57;;
72601;SDS011;60644;55.858;37.390;2023-11-18T13:21:14;20.00;;;6.50;;
72601;SDS011;60644;55.858;37.390;2023-11-18T13:23:44;18.20;;;6.70;;
72601;SDS011;60644;55.858;37.390;2023-11-18T13:26:10;17.42;;;6.43;;
72601;SDS011;60644;55.858;37.390;2023-11-18T13:28:37;15.60;;;6.63;;
72601;SDS011;60644;55.858;37.390;2023-11-18T13:31:05;19.83;;;7.00;;
72601;SDS011;60644;55.858;37.390;2023-11-18T13:33:35;17.80;;;6.35;;
72601;SDS011;60644;55.858;37.390;2023-11-18T13:36:01;17.40;;;5.82;;
72601;SDS011;60644;55.858;37.390;2023-11-18T13:38:29;14.38;;;5.22;;
72601;SDS011;60644;55.858;37.390;2023-11-18T13:40:55;17.90;;;5.20;;
72601;SDS011;60644;55.858;37.390;2023-11-18T13:43:21;13.13;;;4.40;;
72601;SDS011;60644;55.858;37.390;2023-11-18T13:45:51;12.20;;;4.68;;
72601;SDS011;60644;55.858;37.390;2023-11-18T13:48:22;14.13;;;4.40;;
72601;SDS011;60644;55.858;37.390;2023-11-18T13:50:49;13.18;;;4.18;;
72601;SDS011;60644;55.858;37.390;2023-11-18T13:53:16;16.77;;;4.13;;
72601;SDS011;60644;55.858;37.390;2023-11-18T13:55:42;13.57;;;4.70;;
72601;SDS011;60644;55.858;37.390;2023-11-18T13:58:08;14.05;;;5.40;;
72601;SDS011;60644;55.858;37.390;2023-11-18T14:00:35;15.10;;;4.57;;
72601;SDS011;60644;55.858;37.390;2023-11-18T14:03:01;16.15;;;5.05;;
72601;SDS011;60644;55.858;37.390;2023-11-18T14:05:32;16.67;;;6.28;;
72601;SDS011;60644;55.858;37.390;2023-11-18T14:07:58;15.10;;;5.70;;
72601;SDS011;60644;55.858;37.390;2023-11-18T14:10:37;13.37;;;5.40;;
72601;SDS011;60644;55.858;37.390;2023-11-18T14:13:05;16.73;;;5.47;;
72601;SDS011;60644;55.858;37.390;2023-11-18T14:15:33;16.60;;;5.93;;
72601;SDS011;60644;55.858;37.390;2023-11-18T14:18:04;16.00;;;6.00;;
72601;SDS011;60644;55.858;37.390;2023-11-18T14:20:33;18.02;;;5.30;;
72601;SDS011;60644;55.858;37.390;2023-11-18T14:23:04;15.93;;;5.83;;
72601;SDS011;60644;55.858;37.390;2023-11-18T14:25:33;11.10;;;4.72;;
72601;SDS011;60644;55.858;37.390;2023-11-18T14:28:00;15.80;;;5.03;;
72601;SDS011;60644;55.858;37.390;2023-11-18T14:30:25;17.20;;;5.35;;
72601;SDS011;60644;55.858;37.390;2023-11-18T14:32:52;17.07;;;5.67;;
72601;SDS011;60644;55.858;37.390;2023-11-18T14:35:18;21.10;;;7.72;;
72601;SDS011;60644;55.858;37.390;2023-11-18T14:37:44;20.02;;;7.72;;
72601;SDS011;60644;55.858;37.390;2023-11-18T14:40:13;21.95;;;6.28;;
72601;SDS011;60644;55.858;37.390;2023-11-18T14:42:43;22.43;;;9.03;;
72601;SDS011;60644;55.858;37.390;2023-11-18T14:45:10;18.38;;;8.27;;
72601;SDS011;60644;55.858;37.390;2023-11-18T14:47:38;19.15;;;8.35;;
72601;SDS011;60644;55.858;37.390;2023-11-18T14:50:04;19.15;;;7.03;;
72601;SDS011;60644;55.858;37.390;2023-11-18T14:52:31;17.27;;;7.13;;
72601;SDS011;60644;55.858;37.390;2023-11-18T14:54:56;15.37;;;5.23;;
72601;SDS011;60644;55.858;37.390;2023-11-18T14:57:22;10.43;;;3.78;;